Time;durP1;ratioP1;P1;durP2;ratioP2;P2;SDS_P1;SDS_P2;PMS_P1;PMS_P2;Temp;Humidity;BMP_temperature;BMP_pressure;BME280_temperature;BME280_humidity;BME280_pressure;Samples;Min_cycle;Max_cycle;Signal;HPM_P1;HPM_P2
2022/06/26 00:00:29;;;;;;;;;;;18.20;99.90;;;;;;5000971;28;20020;-74
2022/06/26 00:02:55;;;;;;;;;;;18.30;99.90;;;;;;5006135;28;19952;-74
2022/06/26 00:05:20;;;;;;;;;;;18.20;99.90;;;;;;5002632;28;19960;-74
2022/06/26 00:07:46;;;;;;;;;;;18.20;99.90;;;;;;5001659;28;19921;-74
2022/06/26 00:10:12;;;;;;;;;;;18.20;99.90;;;;;;5002213;28;20017;-74
2022/06/26 00:12:38;;;;;;;;;;;18.20;99.90;;;;;;5003117;28;20037;-74
2022/06/26 00:15:03;;;;;;;;;;;18.10;99.90;;;;;;4998451;28;19917;-74
2022/06/26 00:17:29;;;;;;;;;;;18.10;99.90;;;;;;5003533;28;19972;-74
2022/06/26 00:19:54;;;;;;;;;;;18.10;99.90;;;;;;5002339;28;19933;-74
2022/06/26 00:22:20;;;;;;;;;;;18.10;99.90;;;;;;5003640;28;19980;-74
2022/06/26 00:24:46;;;;;;;;;;;18.10;99.90;;;;;;5001105;28;20016;-74
2022/06/26 00:27:12;;;;;;;;;;;18.10;99.90;;;;;;5004355;28;19921;-74
2022/06/26 00:29:37;;;;;;;;;;;18.10;99.90;;;;;;5001870;28;19922;-74
2022/06/26 00:32:04;;;;;;;;;;;18.10;99.90;;;;;;4990247;28;19940;-74
2022/06/26 00:34:30;;;;;;;;;;;18.10;99.90;;;;;;5002768;28;19926;-74
2022/06/26 00:36:55;;;;;;;;;;;18.10;99.90;;;;;;5002629;28;19935;-74
2022/06/26 00:39:21;;;;;;;;;;;18.10;99.90;;;;;;5007003;28;19968;-74
2022/06/26 00:41:47;;;;;;;;;;;18.10;99.90;;;;;;5006708;28;19929;-74
2022/06/26 00:44:17;;;;;;;;;;;18.10;99.90;;;;;;5006440;28;20008;-74
2022/06/26 00:46:43;;;;;;;;;;;18.10;99.90;;;;;;5009166;28;20382;-74
2022/06/26 00:49:09;;;;;;;;;;;18.20;99.90;;;;;;5015530;28;20618;-74
2022/06/26 00:51:35;;;;;;;;;;;18.10;99.90;;;;;;5004422;28;19917;-74
2022/06/26 00:54:00;;;;;;;;;;;18.10;99.90;;;;;;4989499;28;20008;-74
2022/06/26 00:56:26;;;;;;;;;;;18.20;99.90;;;;;;4991341;28;20012;-74
2022/06/26 00:58:52;;;;;;;;;;;18.20;99.90;;;;;;5003989;28;19921;-74
2022/06/26 01:01:17;;;;;;;;;;;18.30;99.90;;;;;;5004939;28;19918;-74
2022/06/26 01:03:43;;;;;;;;;;;18.20;99.90;;;;;;5004094;28;19971;-74
2022/06/26 01:06:09;;;;;;;;;;;18.20;99.90;;;;;;5007153;28;20395;-74
2022/06/26 01:08:35;;;;;;;;;;;18.20;99.90;;;;;;5005378;28;19921;-74
2022/06/26 01:11:01;;;;;;;;;;;18.30;99.90;;;;;;5003885;28;19918;-74
2022/06/26 01:13:27;;;;;;;;;;;18.20;99.90;;;;;;5005174;28;20443;-74
2022/06/26 01:15:53;;;;;;;;;;;18.30;99.90;;;;;;5007301;28;20009;-74
2022/06/26 01:18:19;;;;;;;;;;;18.30;99.90;;;;;;5004317;28;20044;-74
2022/06/26 01:20:53;;;;;;;;;;;18.40;99.90;;;;;;5005668;28;20012;-74
2022/06/26 01:23:19;;;;;;;;;;;18.40;99.90;;;;;;5002181;28;20298;-74
2022/06/26 01:25:46;;;;;;;;;;;18.40;99.90;;;;;;5005190;28;20012;-74
2022/06/26 01:28:12;;;;;;;;;;;18.50;99.90;;;;;;5001318;28;20261;-74
2022/06/26 01:30:38;;;;;;;;;;;18.50;99.90;;;;;;5006359;28;19975;-74
2022/06/26 01:33:05;;;;;;;;;;;18.50;99.90;;;;;;4989538;28;19921;-74
2022/06/26 01:35:31;;;;;;;;;;;18.50;99.90;;;;;;5002662;28;19979;-75
2022/06/26 01:38:06;;;;;;;;;;;18.50;99.90;;;;;;5003217;28;19926;-74
2022/06/26 01:40:32;;;;;;;;;;;18.50;99.90;;;;;;4995042;28;20003;-75
2022/06/26 01:42:59;;;;;;;;;;;18.60;99.90;;;;;;4998922;28;19921;-75
2022/06/26 01:45:24;;;;;;;;;;;18.60;99.90;;;;;;5006948;28;20256;-74
2022/06/26 01:47:50;;;;;;;;;;;18.60;99.90;;;;;;5008356;28;19925;-74
2022/06/26 01:50:15;;;;;;;;;;;18.60;99.90;;;;;;5007381;28;20021;-75
2022/06/26 01:52:41;;;;;;;;;;;18.60;99.90;;;;;;5005540;28;19930;-76
2022/06/26 01:55:07;;;;;;;;;;;18.60;99.90;;;;;;5008904;28;19925;-75
2022/06/26 01:57:32;;;;;;;;;;;18.60;99.90;;;;;;5006599;28;20387;-74
2022/06/26 01:59:58;;;;;;;;;;;18.60;99.90;;;;;;5004949;28;20384;-74
2022/06/26 02:02:23;;;;;;;;;;;18.60;99.90;;;;;;5008916;28;19969;-74
2022/06/26 02:04:49;;;;;;;;;;;18.50;99.90;;;;;;5011814;28;20832;-75
2022/06/26 02:07:15;;;;;;;;;;;18.40;99.90;;;;;;5024026;28;19917;-74
2022/06/26 02:15:09;;;;;;;;;;;18.40;99.90;;;;;;5004687;28;19928;-74
2022/06/26 02:17:34;;;;;;;;;;;18.40;99.90;;;;;;5006452;28;20488;-74
2022/06/26 02:20:00;;;;;;;;;;;18.40;99.90;;;;;;4989048;28;20406;-75
2022/06/26 02:22:25;;;;;;;;;;;18.40;99.90;;;;;;5006205;28;20015;-74
2022/06/26 02:24:51;;;;;;;;;;;18.40;99.90;;;;;;5004942;28;20398;-75
2022/06/26 02:27:16;;;;;;;;;;;18.40;99.90;;;;;;5007689;28;19924;-75
2022/06/26 02:29:42;;;;;;;;;;;18.40;99.90;;;;;;5000915;28;21508;-76
2022/06/26 02:32:08;;;;;;;;;;;18.40;99.90;;;;;;4989693;28;20912;-79
2022/06/26 02:34:33;;;;;;;;;;;18.40;99.90;;;;;;5003778;28;19921;-75
2022/06/26 02:36:59;;;;;;;;;;;18.40;99.90;;;;;;5008151;28;20012;-75
2022/06/26 02:39:24;;;;;;;;;;;18.40;99.90;;;;;;5005489;28;20769;-74
2022/06/26 02:41:50;;;;;;;;;;;18.40;99.90;;;;;;4986307;28;19925;-74
2022/06/26 02:44:16;;;;;;;;;;;18.50;99.90;;;;;;5004335;28;20012;-75
2022/06/26 02:46:42;;;;;;;;;;;18.40;99.90;;;;;;5003685;28;19924;-75
2022/06/26 02:49:08;;;;;;;;;;;18.40;99.90;;;;;;5008133;28;19921;-75
2022/06/26 02:51:33;;;;;;;;;;;18.40;99.90;;;;;;5008274;28;19917;-75
2022/06/26 02:53:59;;;;;;;;;;;18.40;99.90;;;;;;4992270;28;19925;-78
2022/06/26 02:56:24;;;;;;;;;;;18.30;99.90;;;;;;5005640;28;19924;-75
2022/06/26 02:58:50;;;;;;;;;;;18.30;99.90;;;;;;5007835;28;19921;-75
2022/06/26 03:01:16;;;;;;;;;;;18.30;99.90;;;;;;4998257;28;19933;-75
2022/06/26 03:03:41;;;;;;;;;;;18.20;99.90;;;;;;5008142;28;20244;-75
2022/06/26 03:06:07;;;;;;;;;;;18.10;99.90;;;;;;5005097;28;20023;-76
2022/06/26 03:08:32;;;;;;;;;;;17.90;99.90;;;;;;5001706;28;19988;-77
2022/06/26 03:10:58;;;;;;;;;;;17.80;99.90;;;;;;4985630;28;19917;-75
2022/06/26 03:13:23;;;;;;;;;;;17.70;99.90;;;;;;5007619;28;19921;-76
2022/06/26 03:15:49;;;;;;;;;;;17.60;99.90;;;;;;5011998;28;20028;-77
2022/06/26 03:18:15;;;;;;;;;;;17.60;99.90;;;;;;5006909;28;20402;-78
2022/06/26 03:20:41;;;;;;;;;;;17.50;99.90;;;;;;5005048;28;19922;-75
2022/06/26 03:23:07;;;;;;;;;;;17.50;99.90;;;;;;5009768;28;19972;-75
2022/06/26 03:25:32;;;;;;;;;;;17.40;99.90;;;;;;5012417;28;19979;-76
2022/06/26 03:27:58;;;;;;;;;;;17.40;99.90;;;;;;5011286;28;19917;-78
2022/06/26 03:30:24;;;;;;;;;;;17.30;99.90;;;;;;5007232;28;19940;-76
2022/06/26 03:32:49;;;;;;;;;;;17.30;99.90;;;;;;5006499;28;19956;-75
2022/06/26 03:35:15;;;;;;;;;;;17.30;99.90;;;;;;4992309;28;19917;-75
2022/06/26 03:37:40;;;;;;;;;;;17.20;99.90;;;;;;4999388;28;19985;-76
2022/06/26 03:40:06;;;;;;;;;;;17.20;99.90;;;;;;5000695;28;19918;-75
2022/06/26 03:42:32;;;;;;;;;;;17.10;99.90;;;;;;5004409;28;19943;-75
2022/06/26 03:44:57;;;;;;;;;;;17.20;99.90;;;;;;5001356;28;19917;-75
2022/06/26 03:47:23;;;;;;;;;;;17.20;99.90;;;;;;5006538;28;19987;-75
2022/06/26 03:49:52;;;;;;;;;;;17.10;99.90;;;;;;5003063;28;19918;-76
2022/06/26 03:52:18;;;;;;;;;;;17.10;99.90;;;;;;4981865;28;19930;-76
2022/06/26 03:54:44;;;;;;;;;;;17.10;99.90;;;;;;4998424;28;19925;-76
2022/06/26 03:57:10;;;;;;;;;;;17.10;99.90;;;;;;5003437;28;19972;-76
2022/06/26 03:59:36;;;;;;;;;;;17.00;99.90;;;;;;5007504;28;20016;-76
2022/06/26 04:02:02;;;;;;;;;;;17.00;99.90;;;;;;4999462;28;19926;-75
2022/06/26 04:04:28;;;;;;;;;;;17.00;99.90;;;;;;5002047;28;20007;-76
2022/06/26 04:06:54;;;;;;;;;;;17.00;99.90;;;;;;5003502;28;20015;-76
2022/06/26 04:09:19;;;;;;;;;;;16.90;99.90;;;;;;4988983;28;20016;-75
2022/06/26 04:11:45;;;;;;;;;;;16.90;99.90;;;;;;5006352;28;19921;-76
2022/06/26 04:14:10;;;;;;;;;;;16.90;99.90;;;;;;5005811;28;19926;-76
2022/06/26 04:16:36;;;;;;;;;;;16.90;99.90;;;;;;5004302;28;19924;-76
2022/06/26 04:19:02;;;;;;;;;;;16.90;99.90;;;;;;5007784;28;19942;-76
2022/06/26 04:21:27;;;;;;;;;;;16.90;99.90;;;;;;5006938;28;19918;-75
2022/06/26 04:23:53;;;;;;;;;;;16.80;99.90;;;;;;5011713;28;19925;-76
2022/06/26 04:26:18;;;;;;;;;;;16.80;99.90;;;;;;5006529;28;19925;-76
2022/06/26 04:28:44;;;;;;;;;;;16.80;99.90;;;;;;5006694;28;19924;-76
2022/06/26 04:31:10;;;;;;;;;;;16.80;99.90;;;;;;4993068;28;19964;-75
2022/06/26 04:33:35;;;;;;;;;;;16.80;99.90;;;;;;5005126;28;19932;-76
2022/06/26 04:36:01;;;;;;;;;;;16.80;99.90;;;;;;5002634;28;19921;-76
2022/06/26 04:38:26;;;;;;;;;;;16.80;99.90;;;;;;5004219;28;19921;-76
2022/06/26 04:40:52;;;;;;;;;;;16.80;99.90;;;;;;5007471;28;19918;-76
2022/06/26 04:43:17;;;;;;;;;;;16.80;99.90;;;;;;5004112;28;19918;-76
2022/06/26 04:45:43;;;;;;;;;;;16.80;99.90;;;;;;5008328;28;19932;-76
2022/06/26 04:48:08;;;;;;;;;;;16.80;99.90;;;;;;5003942;28;19925;-75
2022/06/26 04:50:34;;;;;;;;;;;16.90;99.90;;;;;;5005112;28;19917;-76
2022/06/26 04:53:00;;;;;;;;;;;16.90;99.90;;;;;;4992023;28;19925;-75
2022/06/26 04:55:25;;;;;;;;;;;17.00;99.90;;;;;;4993784;28;19921;-75
2022/06/26 04:57:51;;;;;;;;;;;17.00;99.90;;;;;;5005644;28;20012;-75
2022/06/26 05:00:16;;;;;;;;;;;17.10;99.90;;;;;;5005637;28;20044;-75
2022/06/26 05:02:42;;;;;;;;;;;17.10;99.90;;;;;;5001870;28;19926;-75
2022/06/26 05:05:08;;;;;;;;;;;17.20;99.90;;;;;;5007381;28;20565;-75
2022/06/26 05:07:34;;;;;;;;;;;17.30;99.90;;;;;;5004310;28;19948;-75
2022/06/26 05:10:00;;;;;;;;;;;17.40;99.90;;;;;;5005661;28;19970;-75
2022/06/26 05:12:25;;;;;;;;;;;17.50;99.90;;;;;;4993976;28;19925;-75
2022/06/26 05:14:51;;;;;;;;;;;17.60;99.90;;;;;;5006138;28;19928;-75
2022/06/26 05:17:17;;;;;;;;;;;17.60;99.90;;;;;;5003840;28;19917;-75
2022/06/26 05:19:42;;;;;;;;;;;17.60;99.90;;;;;;5005022;28;19943;-75
2022/06/26 05:22:08;;;;;;;;;;;17.60;99.90;;;;;;5006555;28;19972;-75
2022/06/26 05:24:33;;;;;;;;;;;17.70;99.90;;;;;;5007463;28;19968;-75
2022/06/26 05:27:00;;;;;;;;;;;17.60;99.90;;;;;;5006355;28;19921;-75
2022/06/26 05:29:25;;;;;;;;;;;17.60;99.90;;;;;;5003609;28;20439;-75
2022/06/26 05:31:51;;;;;;;;;;;17.60;99.90;;;;;;5004658;28;20001;-75
2022/06/26 05:34:17;;;;;;;;;;;17.60;99.90;;;;;;4986739;28;19974;-75
2022/06/26 05:36:42;;;;;;;;;;;17.60;99.90;;;;;;4988396;28;19926;-75
2022/06/26 05:39:08;;;;;;;;;;;17.70;99.90;;;;;;5001699;28;20015;-75
2022/06/26 05:41:34;;;;;;;;;;;17.60;99.90;;;;;;4995136;28;20435;-75
2022/06/26 05:43:59;;;;;;;;;;;17.60;99.90;;;;;;5004548;28;19917;-75
2022/06/26 05:46:25;;;;;;;;;;;17.60;99.90;;;;;;4999993;28;19925;-75
2022/06/26 05:48:51;;;;;;;;;;;17.60;99.90;;;;;;4998633;28;19992;-75
2022/06/26 05:51:16;;;;;;;;;;;17.70;99.90;;;;;;5006974;28;19925;-75
2022/06/26 05:53:42;;;;;;;;;;;17.70;99.90;;;;;;5010111;28;19921;-76
2022/06/26 05:56:08;;;;;;;;;;;17.70;99.90;;;;;;5006899;28;19928;-76
2022/06/26 05:58:33;;;;;;;;;;;17.80;99.90;;;;;;5010995;28;19925;-76
2022/06/26 06:00:59;;;;;;;;;;;17.90;99.90;;;;;;5011304;28;19983;-75
2022/06/26 06:03:25;;;;;;;;;;;17.90;99.90;;;;;;5011729;28;19916;-76
2022/06/26 06:05:50;;;;;;;;;;;17.90;99.90;;;;;;4991787;28;19944;-76
2022/06/26 06:08:16;;;;;;;;;;;17.90;99.90;;;;;;5008431;28;19956;-75
2022/06/26 06:10:41;;;;;;;;;;;17.90;99.90;;;;;;4991382;28;20008;-77
2022/06/26 06:13:07;;;;;;;;;;;17.90;99.90;;;;;;4991839;28;19921;-75
2022/06/26 06:15:33;;;;;;;;;;;17.90;99.90;;;;;;5001670;28;19921;-75
2022/06/26 06:17:58;;;;;;;;;;;17.90;99.90;;;;;;5006129;28;19917;-76
2022/06/26 06:20:24;;;;;;;;;;;17.90;99.90;;;;;;5009031;28;19917;-75
2022/06/26 06:22:59;;;;;;;;;;;17.90;99.90;;;;;;5019301;28;19971;-75
2022/06/26 06:25:24;;;;;;;;;;;18.00;99.90;;;;;;5012235;28;19917;-75
2022/06/26 06:27:50;;;;;;;;;;;18.10;99.90;;;;;;5003326;28;19917;-75
2022/06/26 06:30:15;;;;;;;;;;;18.10;99.90;;;;;;5008594;28;19929;-76
2022/06/26 06:32:41;;;;;;;;;;;18.10;99.90;;;;;;5001188;28;19972;-77
2022/06/26 06:35:08;;;;;;;;;;;18.20;99.90;;;;;;5008964;28;19918;-77
2022/06/26 06:37:34;;;;;;;;;;;18.00;99.90;;;;;;5007047;28;20290;-75
2022/06/26 06:40:00;;;;;;;;;;;18.10;99.90;;;;;;5006276;28;19917;-75
2022/06/26 06:42:25;;;;;;;;;;;18.20;99.90;;;;;;4998216;28;19928;-75
2022/06/26 06:44:51;;;;;;;;;;;18.20;99.90;;;;;;5008688;28;19937;-75
2022/06/26 06:47:17;;;;;;;;;;;18.20;99.90;;;;;;5001061;28;19980;-74
2022/06/26 06:49:42;;;;;;;;;;;18.20;99.90;;;;;;5000240;28;19922;-75
2022/06/26 06:52:08;;;;;;;;;;;18.20;99.90;;;;;;5007054;28;19975;-75
2022/06/26 06:54:34;;;;;;;;;;;18.20;99.90;;;;;;5001744;28;19929;-75
2022/06/26 06:57:00;;;;;;;;;;;18.20;99.90;;;;;;5008792;28;19921;-75
2022/06/26 06:59:25;;;;;;;;;;;18.10;99.90;;;;;;5011389;28;19928;-73
2022/06/26 07:01:51;;;;;;;;;;;18.20;99.90;;;;;;5004319;28;20055;-72
2022/06/26 07:04:17;;;;;;;;;;;18.30;99.90;;;;;;5000245;28;20422;-73
2022/06/26 07:06:43;;;;;;;;;;;18.40;99.90;;;;;;4993044;28;19918;-75
2022/06/26 07:09:09;;;;;;;;;;;18.40;99.90;;;;;;5009515;28;19963;-77
2022/06/26 07:11:34;;;;;;;;;;;18.40;99.90;;;;;;5015542;28;19917;-77
2022/06/26 07:14:00;;;;;;;;;;;18.40;99.90;;;;;;5004647;28;20288;-78
2022/06/26 07:16:26;;;;;;;;;;;18.50;99.90;;;;;;5015698;28;20375;-77
2022/06/26 07:18:51;;;;;;;;;;;18.60;99.90;;;;;;5021737;28;19917;-77
2022/06/26 07:21:17;;;;;;;;;;;18.70;99.90;;;;;;5019044;28;20009;-77
2022/06/26 07:23:43;;;;;;;;;;;18.70;99.90;;;;;;5027119;28;19924;-77
2022/06/26 07:26:09;;;;;;;;;;;18.80;99.90;;;;;;4994199;28;19921;-77
2022/06/26 07:28:34;;;;;;;;;;;18.80;99.90;;;;;;5004945;28;19918;-78
2022/06/26 07:31:00;;;;;;;;;;;18.70;99.90;;;;;;5010303;28;20426;-76
2022/06/26 07:36:10;;;;;;;;;;;19.00;99.90;;;;;;5014726;28;20286;-77
2022/06/26 07:38:36;;;;;;;;;;;19.20;99.90;;;;;;4994662;28;19921;-77
2022/06/26 07:41:01;;;;;;;;;;;19.20;99.90;;;;;;4990346;28;19921;-79
2022/06/26 07:43:27;;;;;;;;;;;19.20;99.90;;;;;;5000896;28;19921;-77
2022/06/26 07:45:53;;;;;;;;;;;19.30;99.90;;;;;;5004275;28;19944;-78
2022/06/26 07:48:18;;;;;;;;;;;19.50;99.90;;;;;;5001008;28;19917;-76
2022/06/26 07:50:44;;;;;;;;;;;19.50;99.90;;;;;;5004051;28;19965;-77
2022/06/26 07:53:10;;;;;;;;;;;19.50;99.90;;;;;;4989969;28;19996;-77
2022/06/26 07:55:35;;;;;;;;;;;19.50;99.90;;;;;;4995368;28;19952;-78
2022/06/26 07:58:01;;;;;;;;;;;19.60;99.90;;;;;;5007906;28;19922;-76
2022/06/26 08:00:26;;;;;;;;;;;19.70;99.90;;;;;;5012101;28;19923;-76
2022/06/26 08:02:52;;;;;;;;;;;19.70;99.90;;;;;;4995631;28;19925;-77
2022/06/26 08:05:18;;;;;;;;;;;19.80;99.90;;;;;;5009105;28;19926;-78
2022/06/26 08:07:44;;;;;;;;;;;19.90;99.90;;;;;;5007261;28;19925;-77
2022/06/26 08:10:09;;;;;;;;;;;20.00;99.90;;;;;;5005146;28;20517;-76
2022/06/26 08:12:35;;;;;;;;;;;20.10;99.90;;;;;;5005607;28;20367;-76
2022/06/26 08:15:01;;;;;;;;;;;20.10;99.90;;;;;;5010116;28;19925;-76
2022/06/26 08:17:27;;;;;;;;;;;20.20;99.90;;;;;;5008661;28;20453;-77
2022/06/26 08:19:53;;;;;;;;;;;20.40;99.90;;;;;;4990627;28;20640;-76
2022/06/26 08:22:18;;;;;;;;;;;20.40;99.90;;;;;;5009526;28;19917;-77
2022/06/26 08:24:44;;;;;;;;;;;20.40;99.90;;;;;;5004256;28;19960;-76
2022/06/26 08:27:09;;;;;;;;;;;20.60;99.90;;;;;;5008303;28;20376;-76
2022/06/26 08:29:35;;;;;;;;;;;20.80;99.90;;;;;;5003991;28;19978;-76
2022/06/26 08:32:01;;;;;;;;;;;20.80;99.90;;;;;;4994995;28;20393;-77
2022/06/26 08:34:27;;;;;;;;;;;20.70;99.90;;;;;;4992365;28;19921;-76
2022/06/26 08:36:54;;;;;;;;;;;20.50;99.90;;;;;;5008342;28;19948;-76
2022/06/26 08:39:19;;;;;;;;;;;20.50;99.90;;;;;;5009081;28;20014;-76
2022/06/26 08:41:45;;;;;;;;;;;20.50;99.90;;;;;;5008567;28;20392;-76
2022/06/26 08:44:11;;;;;;;;;;;20.50;99.90;;;;;;4997246;28;19999;-77
2022/06/26 08:46:38;;;;;;;;;;;20.50;99.90;;;;;;5005625;28;19917;-77
2022/06/26 08:49:07;;;;;;;;;;;20.50;99.90;;;;;;5004701;28;19969;-76
2022/06/26 08:51:33;;;;;;;;;;;20.50;99.90;;;;;;5008466;28;19917;-76
2022/06/26 08:54:00;;;;;;;;;;;20.40;99.90;;;;;;5006728;28;19929;-76
2022/06/26 08:56:26;;;;;;;;;;;20.50;99.90;;;;;;4980080;28;19963;-75
2022/06/26 08:58:52;;;;;;;;;;;20.70;99.90;;;;;;5000647;28;20327;-75
2022/06/26 09:01:17;;;;;;;;;;;20.50;99.90;;;;;;5008329;28;19925;-75
2022/06/26 09:03:43;;;;;;;;;;;20.40;99.90;;;;;;5008149;28;19918;-76
2022/06/26 09:06:09;;;;;;;;;;;20.20;99.90;;;;;;4991966;28;19917;-76
2022/06/26 09:08:45;;;;;;;;;;;20.10;99.90;;;;;;4992906;28;20023;-76
2022/06/26 09:11:11;;;;;;;;;;;20.10;99.90;;;;;;5006288;28;20386;-76
2022/06/26 09:13:38;;;;;;;;;;;20.20;99.90;;;;;;4990696;28;19921;-76
2022/06/26 09:16:04;;;;;;;;;;;20.40;99.90;;;;;;5007223;28;20253;-79
2022/06/26 09:18:33;;;;;;;;;;;20.70;99.90;;;;;;4992245;28;19921;-77
2022/06/26 09:20:58;;;;;;;;;;;20.90;99.90;;;;;;5005036;28;19956;-76
2022/06/26 09:23:27;;;;;;;;;;;20.90;99.90;;;;;;5004329;28;19922;-76
2022/06/26 09:25:52;;;;;;;;;;;21.10;99.90;;;;;;4999966;28;19977;-75
2022/06/26 09:28:19;;;;;;;;;;;21.10;99.90;;;;;;5001655;28;19967;-75
2022/06/26 09:30:55;;;;;;;;;;;21.30;99.90;;;;;;5001497;28;19925;-76
2022/06/26 09:33:22;;;;;;;;;;;21.30;99.90;;;;;;5002467;28;19962;-74
2022/06/26 09:35:48;;;;;;;;;;;21.30;99.90;;;;;;5002518;28;19925;-75
2022/06/26 09:38:18;;;;;;;;;;;21.60;99.90;;;;;;5001323;28;19928;-76
2022/06/26 09:40:54;;;;;;;;;;;21.60;99.90;;;;;;5002227;28;19971;-75
2022/06/26 09:43:27;;;;;;;;;;;21.60;99.90;;;;;;4988199;28;19929;-76
2022/06/26 09:45:54;;;;;;;;;;;21.80;99.90;;;;;;4987101;28;20012;-75
2022/06/26 09:48:20;;;;;;;;;;;21.70;99.90;;;;;;5002300;28;19976;-75
2022/06/26 09:50:46;;;;;;;;;;;21.60;99.90;;;;;;4986812;28;19968;-73
2022/06/26 09:53:13;;;;;;;;;;;21.40;99.90;;;;;;5005044;28;19961;-73
2022/06/26 09:55:39;;;;;;;;;;;21.50;99.90;;;;;;5002734;28;19918;-75
2022/06/26 09:58:04;;;;;;;;;;;21.40;99.90;;;;;;5002753;28;19940;-75
2022/06/26 10:00:35;;;;;;;;;;;21.30;99.90;;;;;;5002162;28;19918;-74
2022/06/26 10:08:31;;;;;;;;;;;21.40;99.90;;;;;;5004522;28;20371;-75
2022/06/26 10:10:58;;;;;;;;;;;21.60;99.90;;;;;;5000045;28;19924;-75
2022/06/26 10:13:24;;;;;;;;;;;21.90;99.90;;;;;;5003045;28;19960;-75
2022/06/26 10:16:07;;;;;;;;;;;22.00;99.90;;;;;;4993928;28;20398;-76
2022/06/26 10:18:45;;;;;;;;;;;22.30;99.90;;;;;;5004414;28;19921;-76
2022/06/26 10:21:12;;;;;;;;;;;22.40;99.90;;;;;;4981552;28;19921;-75
2022/06/26 10:23:39;;;;;;;;;;;22.50;99.90;;;;;;4999126;28;19917;-76
2022/06/26 10:26:14;;;;;;;;;;;22.60;99.90;;;;;;5000884;28;19917;-75
2022/06/26 10:28:56;;;;;;;;;;;22.70;99.90;;;;;;5001262;28;19917;-76
2022/06/26 10:31:22;;;;;;;;;;;22.50;99.90;;;;;;4970380;28;19918;-76
2022/06/26 10:33:48;;;;;;;;;;;22.60;99.90;;;;;;4983883;28;20331;-75
2022/06/26 10:36:21;;;;;;;;;;;22.60;99.90;;;;;;5000300;28;19921;-76
2022/06/26 10:38:47;;;;;;;;;;;22.50;99.90;;;;;;5003767;28;19960;-76
2022/06/26 10:44:06;;;;;;;;;;;22.50;99.90;;;;;;5001563;28;20452;-75
2022/06/26 10:46:36;;;;;;;;;;;22.50;99.90;;;;;;5006404;28;19923;-76
2022/06/26 10:49:04;;;;;;;;;;;22.30;99.90;;;;;;5004564;28;19925;-76
2022/06/26 10:51:30;;;;;;;;;;;22.30;99.90;;;;;;4999118;28;19928;-76
2022/06/26 10:53:56;;;;;;;;;;;22.00;99.90;;;;;;5002110;28;20358;-76
2022/06/26 10:56:22;;;;;;;;;;;22.00;99.90;;;;;;5001309;28;19925;-75
2022/06/26 10:58:48;;;;;;;;;;;22.20;99.90;;;;;;4998184;28;19928;-76
2022/06/26 11:01:15;;;;;;;;;;;22.30;99.90;;;;;;5001676;28;19917;-76
2022/06/26 11:03:41;;;;;;;;;;;22.40;99.90;;;;;;4988727;28;19917;-75
2022/06/26 11:06:08;;;;;;;;;;;22.50;99.90;;;;;;4996644;28;19932;-75
2022/06/26 11:08:35;;;;;;;;;;;22.70;99.90;;;;;;5001301;28;20000;-76
2022/06/26 11:11:01;;;;;;;;;;;23.00;99.90;;;;;;4999311;28;19925;-77
2022/06/26 11:13:27;;;;;;;;;;;23.20;99.50;;;;;;4999744;28;19928;-75
2022/06/26 11:15:53;;;;;;;;;;;23.00;98.60;;;;;;4989678;28;19917;-75
2022/06/26 11:18:19;;;;;;;;;;;23.10;99.90;;;;;;5004154;28;19957;-74
2022/06/26 11:20:46;;;;;;;;;;;23.20;99.90;;;;;;5002781;28;19921;-74
2022/06/26 11:23:24;;;;;;;;;;;23.20;99.90;;;;;;5004294;28;20387;-74
2022/06/26 11:26:00;;;;;;;;;;;23.10;99.90;;;;;;5002013;28;20051;-75
2022/06/26 11:28:34;;;;;;;;;;;23.30;99.90;;;;;;5003497;28;20434;-75
2022/06/26 11:31:00;;;;;;;;;;;23.20;99.90;;;;;;5006343;28;20403;-75
2022/06/26 11:33:30;;;;;;;;;;;23.30;99.90;;;;;;5017701;28;20486;-74
2022/06/26 11:36:01;;;;;;;;;;;23.30;99.90;;;;;;5002841;28;19934;-75
2022/06/26 11:38:27;;;;;;;;;;;23.30;99.90;;;;;;5002713;28;20479;-74
2022/06/26 11:40:57;;;;;;;;;;;23.50;99.90;;;;;;5003036;28;20411;-74
2022/06/26 11:43:22;;;;;;;;;;;23.60;99.90;;;;;;5004045;28;19925;-75
2022/06/26 11:45:48;;;;;;;;;;;23.70;99.90;;;;;;5004677;28;19918;-74
2022/06/26 11:48:18;;;;;;;;;;;23.70;99.90;;;;;;5004590;28;19917;-74
2022/06/26 11:50:45;;;;;;;;;;;23.50;97.70;;;;;;5005345;28;19936;-75
2022/06/26 11:53:16;;;;;;;;;;;23.40;99.90;;;;;;4998888;28;20606;-74
2022/06/26 11:55:46;;;;;;;;;;;23.00;99.90;;;;;;5001301;28;20410;-75
2022/06/26 11:58:13;;;;;;;;;;;22.90;99.90;;;;;;5006524;28;19921;-76
2022/06/26 12:00:39;;;;;;;;;;;22.90;99.90;;;;;;5001784;28;20368;-74
2022/06/26 12:03:05;;;;;;;;;;;22.80;99.90;;;;;;5002873;28;19932;-74
2022/06/26 12:05:30;;;;;;;;;;;22.80;99.90;;;;;;5005671;28;19924;-75
2022/06/26 12:07:56;;;;;;;;;;;23.00;99.90;;;;;;5010144;28;20004;-74
2022/06/26 12:10:28;;;;;;;;;;;22.90;99.90;;;;;;5003564;28;19921;-75
2022/06/26 12:12:54;;;;;;;;;;;22.80;99.10;;;;;;5000920;28;20283;-75
2022/06/26 12:15:20;;;;;;;;;;;22.80;99.90;;;;;;4999593;28;19932;-75
2022/06/26 12:17:53;;;;;;;;;;;22.70;99.90;;;;;;5003378;28;19921;-75
2022/06/26 12:20:18;;;;;;;;;;;22.80;99.90;;;;;;4998901;28;19924;-75
2022/06/26 12:22:48;;;;;;;;;;;22.90;99.90;;;;;;5000457;28;19918;-75
2022/06/26 12:25:23;;;;;;;;;;;23.00;99.90;;;;;;4983058;28;20339;-75
2022/06/26 12:27:49;;;;;;;;;;;22.90;98.80;;;;;;4981608;28;20311;-75
2022/06/26 12:30:18;;;;;;;;;;;22.80;98.90;;;;;;4997755;28;19936;-75
2022/06/26 12:32:44;;;;;;;;;;;22.90;99.10;;;;;;4996484;28;20023;-75
2022/06/26 12:35:10;;;;;;;;;;;22.70;98.80;;;;;;5002113;28;21222;-75
2022/06/26 12:37:36;;;;;;;;;;;22.70;99.90;;;;;;5006227;28;19929;-74
2022/06/26 12:40:02;;;;;;;;;;;22.80;99.90;;;;;;5007796;28;19917;-74
2022/06/26 12:42:28;;;;;;;;;;;22.80;99.90;;;;;;5007521;28;19953;-73
2022/06/26 12:44:53;;;;;;;;;;;22.90;99.90;;;;;;5011400;28;20415;-74
2022/06/26 12:47:19;;;;;;;;;;;23.00;99.90;;;;;;5008889;28;20486;-76
2022/06/26 12:49:45;;;;;;;;;;;22.90;99.90;;;;;;5006108;28;20406;-76
2022/06/26 12:52:10;;;;;;;;;;;22.90;99.90;;;;;;5004053;28;20395;-76
2022/06/26 12:54:36;;;;;;;;;;;22.80;99.90;;;;;;5010306;28;20368;-76
2022/06/26 12:57:02;;;;;;;;;;;22.90;99.90;;;;;;5010616;28;19917;-77
2022/06/26 12:59:27;;;;;;;;;;;22.80;99.90;;;;;;5004902;28;19940;-76
2022/06/26 13:01:53;;;;;;;;;;;22.80;99.90;;;;;;5005852;28;20303;-76
2022/06/26 13:04:18;;;;;;;;;;;22.70;99.90;;;;;;4998675;28;20059;-77
2022/06/26 13:06:44;;;;;;;;;;;22.70;99.90;;;;;;4988655;28;20344;-77
2022/06/26 13:09:09;;;;;;;;;;;22.70;99.90;;;;;;4985286;28;19936;-77
2022/06/26 13:11:37;;;;;;;;;;;22.70;99.90;;;;;;5008446;28;20743;-76
2022/06/26 13:14:03;;;;;;;;;;;22.70;99.90;;;;;;4997024;28;19922;-76
2022/06/26 13:16:29;;;;;;;;;;;22.70;99.90;;;;;;5000968;28;20026;-76
2022/06/26 13:18:55;;;;;;;;;;;22.70;99.90;;;;;;4999801;28;19961;-77
2022/06/26 13:21:21;;;;;;;;;;;22.70;99.90;;;;;;5003289;28;20007;-77
2022/06/26 13:23:46;;;;;;;;;;;22.70;99.90;;;;;;4993556;28;19917;-77
2022/06/26 13:26:12;;;;;;;;;;;22.60;99.90;;;;;;5005140;28;19917;-76
2022/06/26 13:28:38;;;;;;;;;;;22.60;99.90;;;;;;5005577;28;21230;-76
2022/06/26 13:31:04;;;;;;;;;;;22.50;99.90;;;;;;5005199;28;20454;-77
2022/06/26 13:33:30;;;;;;;;;;;22.50;99.90;;;;;;4990551;28;20009;-76
2022/06/26 13:35:55;;;;;;;;;;;22.40;99.90;;;;;;4988706;28;20016;-76
2022/06/26 13:38:21;;;;;;;;;;;22.30;99.90;;;;;;5002499;28;19928;-77
2022/06/26 13:40:46;;;;;;;;;;;22.20;99.90;;;;;;5001731;28;19925;-77
2022/06/26 13:43:12;;;;;;;;;;;22.10;99.90;;;;;;4999995;28;19917;-76
2022/06/26 13:45:38;;;;;;;;;;;22.00;99.90;;;;;;4999535;28;19917;-76
2022/06/26 13:48:04;;;;;;;;;;;21.80;99.90;;;;;;5002270;28;19917;-76
2022/06/26 13:50:29;;;;;;;;;;;21.80;99.90;;;;;;4985702;28;20403;-76
2022/06/26 13:52:55;;;;;;;;;;;21.70;99.90;;;;;;5015527;28;19925;-76
2022/06/26 13:55:20;;;;;;;;;;;21.70;99.90;;;;;;5002070;28;19952;-77
2022/06/26 13:57:46;;;;;;;;;;;21.70;99.90;;;;;;5001965;28;20418;-76
2022/06/26 14:00:12;;;;;;;;;;;21.70;99.90;;;;;;4997825;28;19917;-77
2022/06/26 14:02:38;;;;;;;;;;;21.60;99.90;;;;;;5002905;28;19978;-76
2022/06/26 14:05:03;;;;;;;;;;;21.60;99.90;;;;;;5000756;28;20023;-76
2022/06/26 14:07:29;;;;;;;;;;;21.70;99.90;;;;;;5003476;28;19925;-77
2022/06/26 14:09:55;;;;;;;;;;;21.60;99.90;;;;;;4997730;28;19929;-77
2022/06/26 14:12:21;;;;;;;;;;;21.60;99.90;;;;;;4999460;28;19955;-76
2022/06/26 14:14:47;;;;;;;;;;;21.70;99.90;;;;;;5001407;28;19975;-77
2022/06/26 14:17:12;;;;;;;;;;;21.80;99.90;;;;;;5001835;28;19956;-76
2022/06/26 14:19:38;;;;;;;;;;;21.90;99.90;;;;;;5018359;28;20035;-75
2022/06/26 14:27:32;;;;;;;;;;;22.40;99.90;;;;;;5005833;28;19917;-77
2022/06/26 14:29:57;;;;;;;;;;;22.60;99.90;;;;;;5003783;28;20410;-77
2022/06/26 14:32:23;;;;;;;;;;;22.90;99.90;;;;;;5002119;28;19925;-73